createdAt,value
2023-05-04T04:47:18.002Z,10.17
2023-05-04T04:49:44.987Z,10.33
2023-05-04T04:52:12.354Z,10.43
2023-05-04T04:54:39.339Z,10.50
2023-05-04T04:57:06.357Z,10.61
2023-05-04T04:59:33.240Z,10.76
2023-05-04T05:02:00.698Z,10.93
2023-05-04T05:04:28.191Z,11.11
2023-05-04T05:06:55.113Z,11.27
2023-05-04T05:09:21.989Z,11.43
2023-05-04T05:11:49.022Z,11.59
2023-05-04T05:14:15.919Z,11.73
2023-05-04T05:16:42.941Z,11.86
2023-05-04T05:19:09.931Z,11.96
2023-05-04T05:21:36.856Z,12.01
2023-05-04T05:24:03.895Z,12.03
2023-05-04T05:26:31.522Z,12.06
2023-05-04T05:28:59.434Z,12.11
2023-05-04T05:31:28.036Z,12.17
2023-05-04T05:34:02.083Z,12.23
2023-05-04T05:37:09.118Z,12.31
2023-05-04T05:44:50.516Z,12.60
2023-05-04T05:52:50.911Z,12.96
2023-05-04T05:57:02.141Z,13.20
2023-05-04T06:00:22.823Z,13.59
2023-05-04T06:02:52.619Z,13.85
2023-05-04T06:05:20.150Z,14.02
2023-05-04T06:07:48.811Z,14.15
2023-05-04T06:10:16.651Z,14.27
2023-05-04T06:12:44.021Z,14.39
2023-05-04T06:16:12.958Z,14.50
2023-05-04T06:18:56.549Z,14.62
2023-05-04T06:21:49.758Z,14.77
2023-05-04T06:25:22.087Z,14.95
2023-05-04T06:28:41.353Z,15.11
2023-05-04T06:34:40.219Z,15.46
2023-05-04T06:37:07.860Z,15.58
2023-05-04T06:39:36.909Z,15.65
2023-05-04T06:42:18.494Z,15.73
2023-05-04T06:44:54.421Z,15.84
2023-05-04T06:47:21.425Z,15.92
2023-05-04T06:49:51.892Z,15.95
2023-05-04T06:52:19.125Z,16.04
2023-05-04T06:54:51.266Z,16.11
2023-05-04T06:57:19.957Z,16.15
2023-05-04T06:59:47.059Z,16.21
2023-05-04T07:02:14.329Z,16.33
2023-05-04T07:04:41.618Z,16.51
2023-05-04T07:07:28.470Z,16.66
2023-05-04T07:10:43.934Z,16.81
2023-05-04T07:13:50.855Z,16.93
2023-05-04T07:17:56.528Z,16.99
2023-05-04T07:21:28.409Z,17.02
2023-05-04T07:25:23.177Z,17.06
2023-05-04T07:27:56.097Z,17.02
2023-05-04T07:30:46.382Z,16.99
2023-05-04T07:33:20.459Z,16.94
2023-05-04T07:35:48.012Z,16.95
2023-05-04T07:38:14.940Z,17.02
2023-05-04T07:40:42.671Z,17.11
2023-05-04T07:43:10.262Z,17.15
2023-05-04T07:45:37.481Z,17.21
2023-05-04T07:48:07.829Z,17.27
2023-05-04T07:50:39.776Z,17.32
2023-05-04T07:53:06.911Z,17.30
2023-05-04T07:55:37.107Z,17.33
2023-05-04T07:58:04.311Z,17.42
2023-05-04T08:00:36.325Z,17.51
2023-05-04T08:03:07.361Z,17.59
2023-05-04T08:05:46.921Z,17.71
2023-05-04T08:08:42.787Z,17.84
2023-05-04T08:11:20.568Z,17.98
2023-05-04T08:13:49.823Z,18.06
2023-05-04T08:16:23.054Z,18.14
2023-05-04T08:18:53.743Z,18.21
2023-05-04T08:21:21.036Z,18.29
2023-05-04T08:23:48.673Z,18.36
2023-05-04T08:26:15.652Z,18.41
2023-05-04T08:28:43.057Z,18.43
2023-05-04T08:31:12.443Z,18.48
2023-05-04T08:33:39.936Z,18.60
2023-05-04T08:36:08.740Z,18.66
2023-05-04T08:38:36.126Z,18.66
2023-05-04T08:41:06.476Z,18.68
2023-05-04T08:43:38.001Z,18.70
2023-05-04T08:46:10.625Z,18.80
2023-05-04T08:48:37.888Z,18.97
2023-05-04T08:51:04.985Z,19.06
2023-05-04T08:53:31.946Z,19.10
2023-05-04T08:56:04.896Z,19.18
2023-05-04T08:58:38.797Z,19.33
2023-05-04T09:01:07.257Z,19.45
2023-05-04T09:03:34.940Z,19.49
2023-05-04T09:06:45.464Z,19.50
2023-05-04T09:12:50.658Z,19.81
2023-05-04T09:15:23.890Z,20.01
2023-05-04T09:18:07.147Z,20.26
2023-05-04T09:20:45.198Z,20.55
2023-05-04T09:23:12.195Z,20.75
2023-05-04T09:25:48.887Z,20.84
2023-05-04T09:28:16.448Z,20.86
2023-05-04T09:30:43.521Z,20.81
2023-05-04T09:33:13.420Z,20.80
2023-05-04T09:35:50.280Z,20.86
2023-05-04T09:38:30.222Z,20.90
2023-05-04T09:40:57.189Z,20.88
2023-05-04T09:43:24.840Z,20.93
2023-05-04T09:45:51.913Z,20.91
2023-05-04T09:48:25.833Z,20.83
2023-05-04T09:50:57.339Z,20.80
2023-05-04T09:53:25.513Z,20.82
2023-05-04T09:56:14.833Z,20.89
2023-05-04T09:58:41.768Z,20.91
2023-05-04T10:01:09.176Z,20.95
2023-05-04T10:03:36.158Z,21.03
2023-05-04T10:06:04.435Z,21.10
2023-05-04T10:08:34.503Z,21.19
2023-05-04T10:11:01.899Z,21.28
2023-05-04T10:14:53.460Z,21.34
2023-05-04T10:17:27.658Z,21.33
2023-05-04T10:20:25.621Z,21.31
2023-05-04T10:22:59.094Z,21.38
2023-05-04T10:25:44.368Z,21.65
2023-05-04T10:28:25.577Z,21.99
2023-05-04T10:30:58.709Z,22.24
2023-05-04T10:33:26.615Z,22.28
2023-05-04T10:35:54.241Z,22.39
2023-05-04T10:38:32.777Z,22.56
2023-05-04T10:40:59.776Z,23.02
2023-05-04T10:43:29.181Z,23.58
2023-05-04T10:45:57.746Z,24.12
2023-05-04T10:48:35.186Z,24.33
2023-05-04T10:51:02.209Z,24.35
2023-05-04T10:53:33.078Z,24.40
2023-05-04T10:56:00.308Z,24.49
2023-05-04T10:58:30.437Z,24.69
2023-05-04T11:00:57.416Z,24.94
2023-05-04T11:03:25.142Z,24.96
2023-05-04T11:05:54.722Z,24.82
2023-05-04T11:08:25.557Z,24.49
2023-05-04T11:11:07.071Z,24.11
2023-05-04T11:13:34.938Z,23.74
2023-05-04T11:16:02.213Z,23.59
2023-05-04T11:18:37.609Z,23.53
2023-05-04T11:21:04.707Z,23.55
2023-05-04T11:23:31.791Z,23.69
2023-05-04T11:25:58.688Z,23.87
2023-05-04T11:28:36.066Z,23.93
2023-05-04T11:31:16.359Z,23.85
2023-05-04T11:33:51.396Z,23.72
2023-05-04T11:36:18.393Z,23.80
2023-05-04T11:38:45.544Z,23.91
2023-05-04T11:41:13.065Z,23.91
2023-05-04T11:43:42.177Z,23.77
2023-05-04T11:46:09.210Z,23.60
2023-05-04T11:48:36.250Z,23.49
2023-05-04T11:51:03.841Z,23.48
2023-05-04T11:53:38.640Z,23.50
2023-05-04T11:56:06.739Z,23.47
2023-05-04T11:58:33.720Z,23.30
2023-05-04T12:01:00.615Z,23.19
2023-05-04T12:03:43.177Z,23.19
2023-05-04T12:06:15.383Z,23.20
2023-05-04T12:08:42.612Z,23.23
2023-05-04T12:11:17.069Z,23.23
2023-05-04T12:13:44.946Z,23.21
2023-05-04T12:16:21.278Z,23.22
2023-05-04T12:18:48.421Z,23.21
2023-05-04T12:21:20.019Z,23.15
2023-05-04T12:23:47.584Z,23.05
2023-05-04T12:26:16.271Z,22.95
2023-05-04T12:28:45.216Z,22.74
2023-05-04T12:31:12.252Z,22.56
2023-05-04T12:33:39.204Z,22.56
2023-05-04T12:36:06.645Z,22.66
2023-05-04T12:38:34.018Z,22.84
2023-05-04T12:41:04.286Z,22.97
2023-05-04T12:43:33.089Z,22.90
2023-05-04T12:46:00.127Z,22.83
2023-05-04T12:48:29.247Z,22.74
2023-05-04T12:50:56.227Z,22.57
2023-05-04T12:53:25.843Z,22.44
2023-05-04T12:55:52.860Z,22.33
2023-05-04T12:58:19.764Z,22.19
2023-05-04T13:00:46.767Z,22.08
2023-05-04T13:03:14.683Z,22.08
2023-05-04T13:05:41.828Z,22.11
2023-05-04T13:08:08.845Z,22.12
2023-05-04T13:10:36.034Z,22.08
2023-05-04T13:13:04.940Z,22.02
2023-05-04T13:15:33.488Z,22.00
2023-05-04T13:18:00.749Z,22.03
